createdAt,value
2022-12-08T00:06:18.795Z,12535.99179
2022-12-08T00:21:21.074Z,12535.99179
2022-12-08T00:36:23.386Z,12535.99179
2022-12-08T00:51:25.880Z,12412.28135
2022-12-08T01:06:28.241Z,9544.68857
2022-12-08T01:21:30.559Z,9378.62522
2022-12-08T01:36:32.838Z,11130.77739
2022-12-08T01:51:35.297Z,11890.75693
2022-12-08T02:06:37.648Z,11991.52605
2022-12-08T02:21:39.954Z,11622.1772
2022-12-08T02:36:42.228Z,11297.40579
2022-12-08T02:51:44.512Z,11241.31142
2022-12-08T03:06:48.540Z,11011.67374
2022-12-08T03:21:50.736Z,10719.69755
2022-12-08T03:36:52.960Z,10198.19876
2022-12-08T03:51:55.198Z,10053.28652
2022-12-08T04:06:57.490Z,9921.12237
2022-12-08T04:21:59.648Z,9767.0411
2022-12-08T04:37:01.860Z,9233.27949
2022-12-08T04:52:04.092Z,9783.92449
2022-12-08T05:07:06.320Z,7721.69217
2022-12-08T05:22:08.624Z,7638.32708
2022-12-08T05:37:10.954Z,7393.86071
2022-12-08T05:52:13.133Z,7279.74325
2022-12-08T06:07:16.236Z,7481.82468
2022-12-08T06:22:18.605Z,7228.6084
2022-12-08T06:37:20.819Z,7110.55325
2022-12-08T06:52:23.038Z,7422.95131
2022-12-08T07:07:25.288Z,7732.24093
2022-12-08T07:22:27.478Z,7758.73936
2022-12-08T07:37:29.706Z,7844.76834
2022-12-08T07:52:31.972Z,8097.28233
2022-12-08T08:07:34.172Z,8149.74852
2022-12-08T08:22:36.576Z,7888.50224
2022-12-08T08:37:38.953Z,8191.028
2022-12-08T08:52:41.172Z,8311.30741
2022-12-08T09:07:43.407Z,7695.44577
2022-12-08T09:22:45.851Z,6835.74927
2022-12-08T09:37:48.041Z,6856.45111
2022-12-08T09:52:50.253Z,5823.04582
2022-12-08T10:07:52.502Z,5380.22868
2022-12-08T10:22:54.726Z,5226.22399
2022-12-08T10:37:56.952Z,5304.59285
2022-12-08T10:52:59.202Z,5035.58772
2022-12-08T11:08:01.605Z,4858.36962
2022-12-08T11:23:03.899Z,4764.31028
2022-12-08T11:38:20.487Z,5240.74128
2022-12-08T11:53:23.691Z,5131.46019
2022-12-08T12:08:26.055Z,5615.07991
2022-12-08T12:23:28.290Z,4845.89093
2022-12-08T12:38:30.553Z,4083.69459
2022-12-08T12:53:32.834Z,3966.3635
2022-12-08T13:08:35.070Z,3916.95552
2022-12-08T13:23:37.319Z,3611.99794
2022-12-08T13:38:39.579Z,3258.49214
2022-12-08T13:54:53.747Z,3357.05861
2022-12-08T14:10:22.351Z,3438.63961
2022-12-08T14:25:24.630Z,2664.78395
2022-12-08T14:40:26.874Z,2632.55866
2022-12-08T14:55:29.170Z,2563.40631
2022-12-08T15:10:31.494Z,2502.21095
2022-12-08T15:25:33.934Z,2197.20547
2022-12-08T15:40:36.214Z,2212.66665
2022-12-08T15:55:39.171Z,2135.84956
2022-12-08T16:11:24.257Z,1900.60493
2022-12-08T16:43:34.796Z,1398.22186
2022-12-08T16:58:36.993Z,1302.9471
2022-12-08T17:13:39.216Z,1304.14797
2022-12-08T17:43:54.289Z,1334.90617
2022-12-08T17:58:56.535Z,1361.88694
2022-12-08T18:13:58.798Z,1520.68829
2022-12-08T18:29:01.189Z,1552.38667
2022-12-08T18:44:03.470Z,1571.34974
2022-12-08T18:59:05.662Z,1632.06508
2022-12-08T19:14:07.910Z,1886.66716
2022-12-08T19:29:10.143Z,2012.80278
2022-12-08T19:44:12.373Z,1909.58214
2022-12-08T19:59:14.579Z,2053.70152
2022-12-08T20:14:16.808Z,2147.19322
2022-12-08T20:29:19.023Z,1970.75259
2022-12-08T20:44:21.371Z,1947.69492
2022-12-08T20:59:23.584Z,1950.37955
2022-12-08T21:14:26.121Z,1721.41169
2022-12-08T21:29:28.623Z,1810.6211
2022-12-08T21:44:30.952Z,1805.99922
2022-12-08T21:59:33.205Z,1821.10732
2022-12-08T22:14:36.888Z,1775.40827
2022-12-08T22:29:39.461Z,1607.95504
2022-12-08T22:44:41.658Z,1588.10375
2022-12-08T22:59:43.866Z,1679.52572
2022-12-08T23:14:46.088Z,1728.77264
2022-12-08T23:29:48.383Z,1768.7505
2022-12-08T23:44:50.781Z,1662.7502
2022-12-08T23:59:53.063Z,1573.09666
